sensor_id;sensor_type;location;lat;lon;timestamp;pressure;altitude;pressure_sealevel;temperature;humidity
10366;BME280;5229;41.820;23.490;2022-09-19T00:00:43;90009.56;;;8.34;45.22
10366;BME280;5229;41.820;23.490;2022-09-19T00:03:11;90002.84;;;8.33;44.38
10366;BME280;5229;41.820;23.490;2022-09-19T00:05:39;90004.97;;;8.31;45.45
10366;BME280;5229;41.820;23.490;2022-09-19T00:08:06;90006.78;;;8.30;45.07
10366;BME280;5229;41.820;23.490;2022-09-19T00:10:38;89999.31;;;8.29;45.42
10366;BME280;5229;41.820;23.490;2022-09-19T00:13:06;90002.50;;;8.26;45.01
10366;BME280;5229;41.820;23.490;2022-09-19T00:15:35;90000.19;;;8.24;44.58
10366;BME280;5229;41.820;23.490;2022-09-19T00:18:02;89997.34;;;8.26;45.06
10366;BME280;5229;41.820;23.490;2022-09-19T00:20:38;89990.97;;;8.18;44.75
10366;BME280;5229;41.820;23.490;2022-09-19T00:23:05;89990.41;;;8.08;45.25
10366;BME280;5229;41.820;23.490;2022-09-19T00:25:57;90000.63;;;7.99;44.89
10366;BME280;5229;41.820;23.490;2022-09-19T00:28:23;89989.00;;;8.02;45.73
10366;BME280;5229;41.820;23.490;2022-09-19T00:30:53;89989.94;;;8.06;45.69
10366;BME280;5229;41.820;23.490;2022-09-19T00:33:20;89992.03;;;8.04;44.94
10366;BME280;5229;41.820;23.490;2022-09-19T00:35:48;89989.06;;;7.97;45.95
10366;BME280;5229;41.820;23.490;2022-09-19T00:38:16;89985.53;;;7.93;45.86
10366;BME280;5229;41.820;23.490;2022-09-19T00:40:43;89978.38;;;7.90;45.60
10366;BME280;5229;41.820;23.490;2022-09-19T00:43:11;89973.22;;;7.90;45.27
10366;BME280;5229;41.820;23.490;2022-09-19T00:45:40;89976.84;;;7.89;45.70
10366;BME280;5229;41.820;23.490;2022-09-19T00:48:07;89981.53;;;7.87;44.81
10366;BME280;5229;41.820;23.490;2022-09-19T00:50:37;89987.84;;;7.81;45.99
10366;BME280;5229;41.820;23.490;2022-09-19T00:53:08;89978.38;;;7.76;45.15
10366;BME280;5229;41.820;23.490;2022-09-19T00:55:37;89981.81;;;7.72;46.27
10366;BME280;5229;41.820;23.490;2022-09-19T00:58:08;89971.13;;;7.65;46.07
10366;BME280;5229;41.820;23.490;2022-09-19T01:00:36;89974.06;;;7.58;45.75
10366;BME280;5229;41.820;23.490;2022-09-19T01:03:04;89973.88;;;7.55;46.31
10366;BME280;5229;41.820;23.490;2022-09-19T01:05:41;89967.19;;;7.54;46.69
10366;BME280;5229;41.820;23.490;2022-09-19T01:08:48;89968.31;;;7.48;46.77
10366;BME280;5229;41.820;23.490;2022-09-19T01:11:44;89970.22;;;7.42;47.49
10366;BME280;5229;41.820;23.490;2022-09-19T01:14:22;89969.75;;;7.40;47.44
10366;BME280;5229;41.820;23.490;2022-09-19T01:16:56;89973.75;;;7.33;47.77
10366;BME280;5229;41.820;23.490;2022-09-19T01:19:48;89979.47;;;7.30;47.63
10366;BME280;5229;41.820;23.490;2022-09-19T01:22:25;89976.44;;;7.28;47.63
10366;BME280;5229;41.820;23.490;2022-09-19T01:24:59;89981.59;;;7.28;48.27
10366;BME280;5229;41.820;23.490;2022-09-19T01:27:40;89976.78;;;7.21;49.06
10366;BME280;5229;41.820;23.490;2022-09-19T01:30:12;89971.44;;;7.18;49.89
10366;BME280;5229;41.820;23.490;2022-09-19T01:32:44;89966.56;;;7.16;49.99
10366;BME280;5229;41.820;23.490;2022-09-19T01:35:21;89955.84;;;7.09;49.30
10366;BME280;5229;41.820;23.490;2022-09-19T01:37:53;89962.81;;;7.09;49.57
10366;BME280;5229;41.820;23.490;2022-09-19T01:40:24;89955.38;;;7.07;50.56
10366;BME280;5229;41.820;23.490;2022-09-19T01:42:52;89959.00;;;7.06;50.75
10366;BME280;5229;41.820;23.490;2022-09-19T01:45:24;89950.97;;;7.08;50.76
10366;BME280;5229;41.820;23.490;2022-09-19T01:48:00;89949.94;;;7.09;50.49
10366;BME280;5229;41.820;23.490;2022-09-19T01:50:43;89952.50;;;7.09;50.25
10366;BME280;5229;41.820;23.490;2022-09-19T01:53:22;89951.47;;;7.10;51.00
10366;BME280;5229;41.820;23.490;2022-09-19T01:56:01;89954.06;;;7.10;50.50
10366;BME280;5229;41.820;23.490;2022-09-19T01:58:35;89953.09;;;7.06;51.10
10366;BME280;5229;41.820;23.490;2022-09-19T02:01:11;89956.50;;;7.01;50.27
10366;BME280;5229;41.820;23.490;2022-09-19T02:03:46;89960.63;;;7.02;50.80
10366;BME280;5229;41.820;23.490;2022-09-19T02:06:19;89960.13;;;7.00;51.28
10366;BME280;5229;41.820;23.490;2022-09-19T02:08:51;89972.81;;;6.97;50.89
10366;BME280;5229;41.820;23.490;2022-09-19T02:11:21;89964.88;;;6.93;51.30
10366;BME280;5229;41.820;23.490;2022-09-19T02:13:52;89975.00;;;6.90;51.32
10366;BME280;5229;41.820;23.490;2022-09-19T02:16:24;89972.97;;;6.87;51.39
10366;BME280;5229;41.820;23.490;2022-09-19T02:18:58;89979.38;;;6.89;51.79
10366;BME280;5229;41.820;23.490;2022-09-19T02:21:30;89973.47;;;6.89;51.05
10366;BME280;5229;41.820;23.490;2022-09-19T02:24:06;89979.94;;;6.86;51.43
10366;BME280;5229;41.820;23.490;2022-09-19T02:26:35;89977.16;;;6.83;51.52
10366;BME280;5229;41.820;23.490;2022-09-19T02:29:07;89972.09;;;6.78;51.49
10366;BME280;5229;41.820;23.490;2022-09-19T02:31:36;89970.84;;;6.75;51.27
10366;BME280;5229;41.820;23.490;2022-09-19T02:34:05;89972.16;;;6.73;51.15
10366;BME280;5229;41.820;23.490;2022-09-19T02:36:39;89971.69;;;6.71;51.86
10366;BME280;5229;41.820;23.490;2022-09-19T02:39:13;89968.63;;;6.69;51.24
10366;BME280;5229;41.820;23.490;2022-09-19T02:41:50;89967.56;;;6.70;51.12
10366;BME280;5229;41.820;23.490;2022-09-19T02:44:24;89974.81;;;6.68;51.36
10366;BME280;5229;41.820;23.490;2022-09-19T02:47:02;89977.75;;;6.61;52.25
10366;BME280;5229;41.820;23.490;2022-09-19T02:49:36;89974.75;;;6.54;51.77
10366;BME280;5229;41.820;23.490;2022-09-19T02:52:11;89975.34;;;6.51;51.74
10366;BME280;5229;41.820;23.490;2022-09-19T02:54:44;89976.09;;;6.52;52.21
10366;BME280;5229;41.820;23.490;2022-09-19T02:57:14;89976.09;;;6.52;52.35
10366;BME280;5229;41.820;23.490;2022-09-19T02:59:46;89972.25;;;6.49;52.28
10366;BME280;5229;41.820;23.490;2022-09-19T03:02:20;89977.69;;;6.48;51.79
10366;BME280;5229;41.820;23.490;2022-09-19T03:04:51;89982.84;;;6.48;52.42
10366;BME280;5229;41.820;23.490;2022-09-19T03:07:20;89981.31;;;6.47;51.81
10366;BME280;5229;41.820;23.490;2022-09-19T03:09:58;89978.25;;;6.45;52.10
10366;BME280;5229;41.820;23.490;2022-09-19T03:12:29;89983.41;;;6.45;52.20
10366;BME280;5229;41.820;23.490;2022-09-19T03:14:59;89978.25;;;6.45;52.31
10366;BME280;5229;41.820;23.490;2022-09-19T03:17:32;89977.28;;;6.41;52.10
10366;BME280;5229;41.820;23.490;2022-09-19T03:20:01;89976.81;;;6.39;51.78
10366;BME280;5229;41.820;23.490;2022-09-19T03:22:29;89977.56;;;6.39;51.70
10366;BME280;5229;41.820;23.490;2022-09-19T03:24:56;89981.38;;;6.42;51.84
10366;BME280;5229;41.820;23.490;2022-09-19T03:27:27;89983.41;;;6.45;51.97
10366;BME280;5229;41.820;23.490;2022-09-19T03:29:54;89986.47;;;6.47;51.60
10366;BME280;5229;41.820;23.490;2022-09-19T03:32:21;89983.41;;;6.45;51.55
10366;BME280;5229;41.820;23.490;2022-09-19T03:34:54;89981.88;;;6.44;51.24
10366;BME280;5229;41.820;23.490;2022-09-19T03:37:21;89981.09;;;6.43;51.68
10366;BME280;5229;41.820;23.490;2022-09-19T03:39:48;89978.75;;;6.47;51.46
10366;BME280;5229;41.820;23.490;2022-09-19T03:42:15;89985.41;;;6.48;51.47
10366;BME280;5229;41.820;23.490;2022-09-19T03:44:45;89985.63;;;6.51;52.05
10366;BME280;5229;41.820;23.490;2022-09-19T03:47:12;89993.56;;;6.55;51.91
10366;BME280;5229;41.820;23.490;2022-09-19T03:49:39;89985.75;;;6.60;51.35
10366;BME280;5229;41.820;23.490;2022-09-19T03:52:07;89985.19;;;6.63;51.50
10366;BME280;5229;41.820;23.490;2022-09-19T03:54:33;89990.34;;;6.63;51.42
10366;BME280;5229;41.820;23.490;2022-09-19T03:57:01;89998.06;;;6.63;51.48
10366;BME280;5229;41.820;23.490;2022-09-19T03:59:28;89989.59;;;6.62;50.79
10366;BME280;5229;41.820;23.490;2022-09-19T04:01:54;89982.63;;;6.63;51.45
10366;BME280;5229;41.820;23.490;2022-09-19T04:04:23;89985.19;;;6.63;52.11
10366;BME280;5229;41.820;23.490;2022-09-19T04:06:51;89978.50;;;6.62;51.73
10366;BME280;5229;41.820;23.490;2022-09-19T04:09:19;89971.56;;;6.62;51.00
10366;BME280;5229;41.820;23.490;2022-09-19T04:11:46;89983.66;;;6.62;51.70
10366;BME280;5229;41.820;23.490;2022-09-19T04:14:12;89988.53;;;6.63;51.79
10366;BME280;5229;41.820;23.490;2022-09-19T04:16:41;89989.31;;;6.64;51.19
10366;BME280;5229;41.820;23.490;2022-09-19T04:19:07;89990.34;;;6.63;51.37
10366;BME280;5229;41.820;23.490;2022-09-19T04:21:37;89999.91;;;6.62;51.43
10366;BME280;5229;41.820;23.490;2022-09-19T04:24:07;90001.19;;;6.60;52.23
10366;BME280;5229;41.820;23.490;2022-09-19T04:26:35;90014.06;;;6.60;51.81
10366;BME280;5229;41.820;23.490;2022-09-19T04:29:02;90009.22;;;6.58;52.08
10366;BME280;5229;41.820;23.490;2022-09-19T04:31:32;90010.47;;;6.61;51.84
10366;BME280;5229;41.820;23.490;2022-09-19T04:34:03;90008.09;;;6.64;52.40
10366;BME280;5229;41.820;23.490;2022-09-19T04:36:30;90003.91;;;6.68;52.05
10366;BME280;5229;41.820;23.490;2022-09-19T04:38:57;90011.31;;;6.75;51.77
10366;BME280;5229;41.820;23.490;2022-09-19T04:41:29;90015.25;;;6.86;52.54
10366;BME280;5229;41.820;23.490;2022-09-19T04:44:01;90019.72;;;6.99;51.91
10366;BME280;5229;41.820;23.490;2022-09-19T04:46:29;90011.06;;;7.08;51.66
10366;BME280;5229;41.820;23.490;2022-09-19T04:48:58;90008.91;;;7.29;52.18
10366;BME280;5229;41.820;23.490;2022-09-19T04:51:26;90012.00;;;7.58;51.54
10366;BME280;5229;41.820;23.490;2022-09-19T04:53:56;90012.13;;;7.93;50.81
10366;BME280;5229;41.820;23.490;2022-09-19T04:56:26;90012.50;;;8.27;50.85
10366;BME280;5229;41.820;23.490;2022-09-19T04:58:53;90005.66;;;8.58;49.74
10366;BME280;5229;41.820;23.490;2022-09-19T05:01:21;90004.03;;;8.98;49.68
10366;BME280;5229;41.820;23.490;2022-09-19T05:03:49;90005.53;;;9.43;48.71
10366;BME280;5229;41.820;23.490;2022-09-19T05:06:16;90011.19;;;10.06;47.93
10366;BME280;5229;41.820;23.490;2022-09-19T05:08:44;90015.00;;;10.82;46.13
10366;BME280;5229;41.820;23.490;2022-09-19T05:11:11;90009.47;;;11.60;45.14
10366;BME280;5229;41.820;23.490;2022-09-19T05:13:38;90009.97;;;12.46;43.78
10366;BME280;5229;41.820;23.490;2022-09-19T05:16:06;90002.59;;;13.26;42.71
10366;BME280;5229;41.820;23.490;2022-09-19T05:18:35;90002.28;;;13.93;41.57
10366;BME280;5229;41.820;23.490;2022-09-19T05:21:05;90009.22;;;14.33;40.86
10366;BME280;5229;41.820;23.490;2022-09-19T05:23:32;90018.41;;;14.07;41.48
10366;BME280;5229;41.820;23.490;2022-09-19T05:26:03;90010.31;;;13.55;42.03
10366;BME280;5229;41.820;23.490;2022-09-19T05:28:30;90009.56;;;13.14;42.80
10366;BME280;5229;41.820;23.490;2022-09-19T05:30:57;90003.19;;;12.82;43.14
10366;BME280;5229;41.820;23.490;2022-09-19T05:33:25;90005.31;;;12.60;44.00
10366;BME280;5229;41.820;23.490;2022-09-19T05:35:54;90015.13;;;12.54;44.39
10366;BME280;5229;41.820;23.490;2022-09-19T05:38:21;90012.69;;;12.58;44.99
10366;BME280;5229;41.820;23.490;2022-09-19T05:40:50;90008.75;;;12.72;44.40
10366;BME280;5229;41.820;23.490;2022-09-19T05:43:17;90012.38;;;13.29;44.35
10366;BME280;5229;41.820;23.490;2022-09-19T05:45:44;90018.69;;;14.50;42.53
10366;BME280;5229;41.820;23.490;2022-09-19T05:48:12;90011.78;;;16.12;39.86
10366;BME280;5229;41.820;23.490;2022-09-19T05:50:42;90013.06;;;17.84;37.46
10366;BME280;5229;41.820;23.490;2022-09-19T05:53:11;90021.69;;;19.39;35.42
10366;BME280;5229;41.820;23.490;2022-09-19T05:55:55;90020.25;;;20.77;33.20
10366;BME280;5229;41.820;23.490;2022-09-19T05:58:22;90015.47;;;21.98;31.83
10366;BME280;5229;41.820;23.490;2022-09-19T06:00:50;90021.41;;;22.98;30.28
10366;BME280;5229;41.820;23.490;2022-09-19T06:03:17;90031.19;;;23.96;28.89
10366;BME280;5229;41.820;23.490;2022-09-19T06:05:47;90031.47;;;25.05;27.78
10366;BME280;5229;41.820;23.490;2022-09-19T06:08:17;90043.78;;;26.21;25.87
10366;BME280;5229;41.820;23.490;2022-09-19T06:10:45;90038.31;;;27.25;25.07
10366;BME280;5229;41.820;23.490;2022-09-19T06:13:13;90049.31;;;28.42;24.42
10366;BME280;5229;41.820;23.490;2022-09-19T06:15:40;90044.91;;;29.10;23.61
10366;BME280;5229;41.820;23.490;2022-09-19T06:18:08;90045.75;;;29.75;22.42
10366;BME280;5229;41.820;23.490;2022-09-19T06:20:35;90048.34;;;30.55;22.08
10366;BME280;5229;41.820;23.490;2022-09-19T06:23:03;90056.16;;;31.44;21.48
10366;BME280;5229;41.820;23.490;2022-09-19T06:25:34;90056.50;;;31.96;20.38
10366;BME280;5229;41.820;23.490;2022-09-19T06:28:03;90060.03;;;32.74;19.95
10366;BME280;5229;41.820;23.490;2022-09-19T06:30:32;90058.72;;;33.22;19.38
10366;BME280;5229;41.820;23.490;2022-09-19T06:32:59;90060.88;;;33.57;19.28
10366;BME280;5229;41.820;23.490;2022-09-19T06:35:26;90061.16;;;33.90;18.83
10366;BME280;5229;41.820;23.490;2022-09-19T06:37:57;90059.00;;;34.24;17.75
10366;BME280;5229;41.820;23.490;2022-09-19T06:40:26;90048.72;;;34.50;18.19
10366;BME280;5229;41.820;23.490;2022-09-19T06:42:57;90049.34;;;34.54;17.80
10366;BME280;5229;41.820;23.490;2022-09-19T06:45:28;90046.03;;;34.50;18.05
10366;BME280;5229;41.820;23.490;2022-09-19T06:47:56;90038.84;;;34.65;17.94
10366;BME280;5229;41.820;23.490;2022-09-19T06:50:23;90042.16;;;34.78;17.56
10366;BME280;5229;41.820;23.490;2022-09-19T06:52:50;90043.22;;;34.89;17.59
10366;BME280;5229;41.820;23.490;2022-09-19T06:55:17;90044.56;;;34.85;16.98
10366;BME280;5229;41.820;23.490;2022-09-19T06:57:52;90038.88;;;34.92;16.64
10366;BME280;5229;41.820;23.490;2022-09-19T07:00:21;90036.47;;;35.03;16.75
10366;BME280;5229;41.820;23.490;2022-09-19T07:02:50;90041.22;;;35.17;16.43
10366;BME280;5229;41.820;23.490;2022-09-19T07:05:18;90042.13;;;35.23;16.23
10366;BME280;5229;41.820;23.490;2022-09-19T07:07:45;90048.38;;;35.47;16.16
10366;BME280;5229;41.820;23.490;2022-09-19T07:10:12;90055.72;;;35.55;16.41
10366;BME280;5229;41.820;23.490;2022-09-19T07:12:39;90055.53;;;35.59;15.42
10366;BME280;5229;41.820;23.490;2022-09-19T07:15:06;90058.81;;;35.72;16.00
10366;BME280;5229;41.820;23.490;2022-09-19T07:17:34;90053.50;;;35.87;15.95
10366;BME280;5229;41.820;23.490;2022-09-19T07:20:01;90053.34;;;35.90;15.33
10366;BME280;5229;41.820;23.490;2022-09-19T07:22:28;90051.25;;;35.85;15.16
10366;BME280;5229;41.820;23.490;2022-09-19T07:24:55;90051.94;;;36.04;14.82
10366;BME280;5229;41.820;23.490;2022-09-19T07:27:22;90052.00;;;36.18;14.89
10366;BME280;5229;41.820;23.490;2022-09-19T07:29:49;90054.97;;;36.29;14.76
10366;BME280;5229;41.820;23.490;2022-09-19T07:32:16;90044.72;;;36.33;15.34
10366;BME280;5229;41.820;23.490;2022-09-19T07:34:44;90042.34;;;36.35;15.31
10366;BME280;5229;41.820;23.490;2022-09-19T07:37:11;90057.03;;;36.58;15.15
10366;BME280;5229;41.820;23.490;2022-09-19T07:39:38;90050.41;;;36.82;15.04
10366;BME280;5229;41.820;23.490;2022-09-19T07:42:05;90050.91;;;36.95;14.79
10366;BME280;5229;41.820;23.490;2022-09-19T07:44:53;90049.38;;;37.18;14.25
10366;BME280;5229;41.820;23.490;2022-09-19T07:47:20;90048.34;;;36.77;14.37
10366;BME280;5229;41.820;23.490;2022-09-19T07:49:55;90043.78;;;35.80;14.80
10366;BME280;5229;41.820;23.490;2022-09-19T07:52:22;90042.41;;;35.34;15.40
10366;BME280;5229;41.820;23.490;2022-09-19T07:54:49;90038.06;;;35.18;15.13
10366;BME280;5229;41.820;23.490;2022-09-19T07:57:16;90037.31;;;35.18;15.12
10366;BME280;5229;41.820;23.490;2022-09-19T07:59:43;90033.47;;;34.74;15.16
10366;BME280;5229;41.820;23.490;2022-09-19T08:02:11;90032.69;;;33.80;15.62
10366;BME280;5229;41.820;23.490;2022-09-19T08:04:38;90024.53;;;32.57;16.27
10366;BME280;5229;41.820;23.490;2022-09-19T08:07:07;90027.19;;;31.27;16.77
10366;BME280;5229;41.820;23.490;2022-09-19T08:09:34;90031.34;;;30.01;17.84
10366;BME280;5229;41.820;23.490;2022-09-19T08:12:01;90032.00;;;28.70;18.28
10366;BME280;5229;41.820;23.490;2022-09-19T08:14:28;90024.38;;;27.40;19.24
10366;BME280;5229;41.820;23.490;2022-09-19T08:16:55;90006.94;;;26.19;20.47
10366;BME280;5229;41.820;23.490;2022-09-19T08:19:22;90001.75;;;25.24;20.95
10366;BME280;5229;41.820;23.490;2022-09-19T08:21:49;89998.03;;;24.46;21.71
10366;BME280;5229;41.820;23.490;2022-09-19T08:24:17;89997.88;;;23.88;22.34
10366;BME280;5229;41.820;23.490;2022-09-19T08:26:44;90001.38;;;23.43;22.84
10366;BME280;5229;41.820;23.490;2022-09-19T08:29:11;89993.44;;;22.97;23.81
10366;BME280;5229;41.820;23.490;2022-09-19T08:31:38;89996.84;;;22.69;24.16
10366;BME280;5229;41.820;23.490;2022-09-19T08:34:05;89982.78;;;22.37;23.89
10366;BME280;5229;41.820;23.490;2022-09-19T08:36:34;89993.97;;;21.99;24.20
10366;BME280;5229;41.820;23.490;2022-09-19T08:39:02;89991.09;;;21.61;24.91
10366;BME280;5229;41.820;23.490;2022-09-19T08:41:45;89986.38;;;21.23;25.21
10366;BME280;5229;41.820;23.490;2022-09-19T08:44:20;89987.38;;;21.08;25.66
10366;BME280;5229;41.820;23.490;2022-09-19T08:46:53;89990.56;;;21.34;25.51
10366;BME280;5229;41.820;23.490;2022-09-19T08:49:27;89981.19;;;22.15;24.50
10366;BME280;5229;41.820;23.490;2022-09-19T08:51:59;89993.81;;;23.41;23.32
10366;BME280;5229;41.820;23.490;2022-09-19T08:54:29;89982.09;;;25.14;21.40
10366;BME280;5229;41.820;23.490;2022-09-19T08:57:00;89987.44;;;26.89;20.02
10366;BME280;5229;41.820;23.490;2022-09-19T08:59:30;89984.16;;;28.40;19.21
10366;BME280;5229;41.820;23.490;2022-09-19T09:02:04;89985.69;;;29.63;18.45
10366;BME280;5229;41.820;23.490;2022-09-19T09:04:34;89974.50;;;30.13;18.10
10366;BME280;5229;41.820;23.490;2022-09-19T09:07:22;89980.09;;;30.02;17.62
10366;BME280;5229;41.820;23.490;2022-09-19T09:10:02;89971.97;;;29.77;18.10
10366;BME280;5229;41.820;23.490;2022-09-19T09:12:40;89971.66;;;29.43;18.13
10366;BME280;5229;41.820;23.490;2022-09-19T09:15:17;89965.38;;;29.50;18.22
10366;BME280;5229;41.820;23.490;2022-09-19T09:17:56;89965.13;;;30.21;17.19
10366;BME280;5229;41.820;23.490;2022-09-19T09:20:32;89965.63;;;31.11;16.80
10366;BME280;5229;41.820;23.490;2022-09-19T09:23:10;89972.25;;;32.15;15.81
10366;BME280;5229;41.820;23.490;2022-09-19T09:25:44;89964.00;;;33.17;15.51
10366;BME280;5229;41.820;23.490;2022-09-19T09:28:15;89967.28;;;34.10;14.89
10366;BME280;5229;41.820;23.490;2022-09-19T09:30:46;89962.91;;;34.93;14.77
10366;BME280;5229;41.820;23.490;2022-09-19T09:33:18;89960.03;;;35.56;14.01
10366;BME280;5229;41.820;23.490;2022-09-19T09:35:48;89966.81;;;36.08;13.99
10366;BME280;5229;41.820;23.490;2022-09-19T09:38:26;89962.63;;;36.31;13.26
10366;BME280;5229;41.820;23.490;2022-09-19T09:44:27;89961.06;;;37.06;13.60
10366;BME280;5229;41.820;23.490;2022-09-19T09:47:03;89958.84;;;37.33;13.11
10366;BME280;5229;41.820;23.490;2022-09-19T09:49:33;89954.47;;;37.36;12.94
10366;BME280;5229;41.820;23.490;2022-09-19T09:52:10;89954.16;;;37.48;13.02
10366;BME280;5229;41.820;23.490;2022-09-19T09:54:52;89948.72;;;37.77;12.76
10366;BME280;5229;41.820;23.490;2022-09-19T09:57:46;89947.06;;;38.20;12.37
10366;BME280;5229;41.820;23.490;2022-09-19T10:00:17;89945.72;;;38.30;11.87
10366;BME280;5229;41.820;23.490;2022-09-19T10:03:09;89948.78;;;38.18;12.13
10366;BME280;5229;41.820;23.490;2022-09-19T10:05:58;89939.75;;;38.26;11.80
10366;BME280;5229;41.820;23.490;2022-09-19T10:08:28;89942.53;;;38.32;11.76
10366;BME280;5229;41.820;23.490;2022-09-19T10:11:03;89934.16;;;38.30;11.42
10366;BME280;5229;41.820;23.490;2022-09-19T10:13:36;89929.13;;;38.23;11.38
10366;BME280;5229;41.820;23.490;2022-09-19T10:16:11;89930.31;;;38.42;11.04
10366;BME280;5229;41.820;23.490;2022-09-19T10:18:47;89924.50;;;38.49;11.69
10366;BME280;5229;41.820;23.490;2022-09-19T10:21:16;89923.19;;;38.44;11.19
10366;BME280;5229;41.820;23.490;2022-09-19T10:23:43;89920.28;;;38.48;11.05
10366;BME280;5229;41.820;23.490;2022-09-19T10:26:13;89927.47;;;38.51;10.93
10366;BME280;5229;41.820;23.490;2022-09-19T10:28:47;89926.06;;;38.55;10.35
10366;BME280;5229;41.820;23.490;2022-09-19T10:31:24;89928.13;;;37.85;10.71
10366;BME280;5229;41.820;23.490;2022-09-19T10:33:56;89927.97;;;36.29;11.45
10366;BME280;5229;41.820;23.490;2022-09-19T10:36:25;89921.00;;;34.65;12.17
10366;BME280;5229;41.820;23.490;2022-09-19T10:38:59;89916.19;;;33.22;12.55
10366;BME280;5229;41.820;23.490;2022-09-19T10:41:29;89905.25;;;31.90;13.42
10366;BME280;5229;41.820;23.490;2022-09-19T10:43:58;89900.69;;;30.82;13.64
10366;BME280;5229;41.820;23.490;2022-09-19T10:46:29;89891.97;;;29.83;14.68
10366;BME280;5229;41.820;23.490;2022-09-19T10:49:03;89892.38;;;29.05;14.96
10366;BME280;5229;41.820;23.490;2022-09-19T10:51:33;89890.91;;;28.33;15.60
10366;BME280;5229;41.820;23.490;2022-09-19T10:54:07;89886.81;;;27.69;16.10
10366;BME280;5229;41.820;23.490;2022-09-19T10:56:39;89894.75;;;27.07;16.36
10366;BME280;5229;41.820;23.490;2022-09-19T10:59:18;89875.81;;;26.52;16.42
10366;BME280;5229;41.820;23.490;2022-09-19T11:02:16;89871.59;;;25.98;18.16
10366;BME280;5229;41.820;23.490;2022-09-19T11:04:52;89868.72;;;25.52;17.82
10366;BME280;5229;41.820;23.490;2022-09-19T11:07:23;89863.41;;;25.15;18.04
10366;BME280;5229;41.820;23.490;2022-09-19T11:09:53;89856.53;;;24.80;18.23
10366;BME280;5229;41.820;23.490;2022-09-19T11:12:25;89855.22;;;24.48;18.58
10366;BME280;5229;41.820;23.490;2022-09-19T11:14:53;89845.59;;;24.20;18.85
10366;BME280;5229;41.820;23.490;2022-09-19T11:17:55;89844.59;;;23.90;19.37
10366;BME280;5229;41.820;23.490;2022-09-19T11:20:37;89837.53;;;23.62;20.00
10366;BME280;5229;41.820;23.490;2022-09-19T11:23:23;89833.16;;;23.28;20.30
10366;BME280;5229;41.820;23.490;2022-09-19T11:26:03;89821.09;;;23.06;21.27
10366;BME280;5229;41.820;23.490;2022-09-19T11:28:40;89813.22;;;22.84;21.55
10366;BME280;5229;41.820;23.490;2022-09-19T11:31:17;89824.19;;;22.65;21.65
10366;BME280;5229;41.820;23.490;2022-09-19T11:33:51;89818.56;;;22.49;22.44
10366;BME280;5229;41.820;23.490;2022-09-19T11:36:38;89825.31;;;22.29;22.69
10366;BME280;5229;41.820;23.490;2022-09-19T11:39:15;89819.66;;;22.17;22.62
10366;BME280;5229;41.820;23.490;2022-09-19T11:41:52;89826.06;;;22.05;22.98
10366;BME280;5229;41.820;23.490;2022-09-19T11:44:33;89818.50;;;21.93;23.04
10366;BME280;5229;41.820;23.490;2022-09-19T11:47:19;89813.59;;;21.81;23.86
10366;BME280;5229;41.820;23.490;2022-09-19T11:52:45;89805.22;;;21.62;24.32
10366;BME280;5229;41.820;23.490;2022-09-19T11:55:22;89802.94;;;21.53;24.54
10366;BME280;5229;41.820;23.490;2022-09-19T11:58:00;89807.81;;;21.44;24.50
10366;BME280;5229;41.820;23.490;2022-09-19T12:00:36;89804.78;;;21.35;24.63
10366;BME280;5229;41.820;23.490;2022-09-19T12:03:25;89806.25;;;21.26;25.07
10366;BME280;5229;41.820;23.490;2022-09-19T12:06:10;89799.47;;;21.25;25.70
10366;BME280;5229;41.820;23.490;2022-09-19T12:08:53;89794.56;;;21.20;25.98
10366;BME280;5229;41.820;23.490;2022-09-19T12:11:34;89800.56;;;21.17;25.96
10366;BME280;5229;41.820;23.490;2022-09-19T12:14:08;89796.78;;;21.07;26.29
10366;BME280;5229;41.820;23.490;2022-09-19T12:16:40;89807.66;;;21.02;26.04
10366;BME280;5229;41.820;23.490;2022-09-19T12:19:10;89799.34;;;20.97;26.07
10366;BME280;5229;41.820;23.490;2022-09-19T12:21:44;89804.19;;;20.91;26.44
10366;BME280;5229;41.820;23.490;2022-09-19T12:24:14;89809.47;;;20.91;26.48
10366;BME280;5229;41.820;23.490;2022-09-19T12:27:03;89798.88;;;20.84;26.58
10366;BME280;5229;41.820;23.490;2022-09-19T12:29:39;89798.84;;;20.77;26.97
10366;BME280;5229;41.820;23.490;2022-09-19T12:32:13;89799.59;;;20.74;27.20
10366;BME280;5229;41.820;23.490;2022-09-19T12:34:46;89795.06;;;20.71;27.35
10366;BME280;5229;41.820;23.490;2022-09-19T12:37:20;89795.41;;;20.66;27.25
10366;BME280;5229;41.820;23.490;2022-09-19T12:39:56;89788.97;;;20.60;27.73
10366;BME280;5229;41.820;23.490;2022-09-19T12:42:31;89786.69;;;20.55;27.77
10366;BME280;5229;41.820;23.490;2022-09-19T12:45:05;89786.69;;;20.52;28.16
10366;BME280;5229;41.820;23.490;2022-09-19T12:48:01;89785.50;;;20.46;28.35
10366;BME280;5229;41.820;23.490;2022-09-19T12:50:35;89788.88;;;20.46;28.60
10366;BME280;5229;41.820;23.490;2022-09-19T12:53:24;89786.19;;;20.39;28.53
10366;BME280;5229;41.820;23.490;2022-09-19T12:56:01;89790.72;;;20.39;28.98
10366;BME280;5229;41.820;23.490;2022-09-19T12:58:34;89787.69;;;20.37;28.74
10366;BME280;5229;41.820;23.490;2022-09-19T13:01:14;89776.75;;;20.28;28.81
10366;BME280;5229;41.820;23.490;2022-09-19T13:03:48;89785.75;;;20.27;29.05
10366;BME280;5229;41.820;23.490;2022-09-19T13:06:18;89786.47;;;20.20;29.25
10366;BME280;5229;41.820;23.490;2022-09-19T13:08:52;89778.53;;;20.17;29.37
10366;BME280;5229;41.820;23.490;2022-09-19T13:11:26;89780.41;;;20.16;29.54
10366;BME280;5229;41.820;23.490;2022-09-19T13:13:57;89774.38;;;20.15;29.42
10366;BME280;5229;41.820;23.490;2022-09-19T13:16:28;89763.47;;;20.17;29.39
10366;BME280;5229;41.820;23.490;2022-09-19T13:18:56;89763.88;;;20.19;29.67
10366;BME280;5229;41.820;23.490;2022-09-19T13:21:42;89758.56;;;20.15;29.34
10366;BME280;5229;41.820;23.490;2022-09-19T13:24:53;89757.00;;;20.07;29.03
10366;BME280;5229;41.820;23.490;2022-09-19T13:27:23;89753.19;;;20.01;29.01
10366;BME280;5229;41.820;23.490;2022-09-19T13:29:50;89755.81;;;19.98;29.48
10366;BME280;5229;41.820;23.490;2022-09-19T13:32:28;89752.03;;;19.99;29.43
10366;BME280;5229;41.820;23.490;2022-09-19T13:35:10;89750.19;;;20.03;29.59
10366;BME280;5229;41.820;23.490;2022-09-19T13:37:58;89747.19;;;20.01;29.31